sensor_id;sensor_type;location;lat;lon;timestamp;P1;durP1;ratioP1;P2;durP2;ratioP2
23181;SDS011;11759;51.282;6.642;2024-03-08T00:00:17;35.78;;;18.63;;
23181;SDS011;11759;51.282;6.642;2024-03-08T00:02:47;34.63;;;16.83;;
23181;SDS011;11759;51.282;6.642;2024-03-08T00:05:17;41.55;;;19.23;;
23181;SDS011;11759;51.282;6.642;2024-03-08T00:07:44;41.97;;;18.67;;
23181;SDS011;11759;51.282;6.642;2024-03-08T00:10:11;44.90;;;19.23;;
23181;SDS011;11759;51.282;6.642;2024-03-08T00:12:41;36.78;;;17.52;;
23181;SDS011;11759;51.282;6.642;2024-03-08T00:15:09;41.65;;;18.95;;
23181;SDS011;11759;51.282;6.642;2024-03-08T00:17:37;39.78;;;18.42;;
23181;SDS011;11759;51.282;6.642;2024-03-08T00:20:05;39.13;;;19.50;;
23181;SDS011;11759;51.282;6.642;2024-03-08T00:22:35;43.00;;;19.08;;
23181;SDS011;11759;51.282;6.642;2024-03-08T00:25:04;40.55;;;18.67;;
23181;SDS011;11759;51.282;6.642;2024-03-08T00:27:32;44.13;;;19.42;;
23181;SDS011;11759;51.282;6.642;2024-03-08T00:29:58;34.45;;;18.65;;
23181;SDS011;11759;51.282;6.642;2024-03-08T00:32:26;43.58;;;19.35;;
23181;SDS011;11759;51.282;6.642;2024-03-08T00:34:54;36.25;;;17.67;;
23181;SDS011;11759;51.282;6.642;2024-03-08T00:37:21;40.15;;;17.45;;
23181;SDS011;11759;51.282;6.642;2024-03-08T00:39:48;39.42;;;19.60;;
23181;SDS011;11759;51.282;6.642;2024-03-08T00:42:18;42.53;;;19.60;;
23181;SDS011;11759;51.282;6.642;2024-03-08T00:44:47;40.78;;;18.25;;
23181;SDS011;11759;51.282;6.642;2024-03-08T00:47:17;40.80;;;18.10;;
23181;SDS011;11759;51.282;6.642;2024-03-08T00:49:44;41.38;;;18.98;;
23181;SDS011;11759;51.282;6.642;2024-03-08T00:52:10;40.45;;;18.77;;
23181;SDS011;11759;51.282;6.642;2024-03-08T00:54:37;38.47;;;19.15;;
23181;SDS011;11759;51.282;6.642;2024-03-08T00:57:04;44.65;;;19.45;;
23181;SDS011;11759;51.282;6.642;2024-03-08T00:59:31;43.53;;;19.35;;
23181;SDS011;11759;51.282;6.642;2024-03-08T01:01:59;41.25;;;18.33;;
23181;SDS011;11759;51.282;6.642;2024-03-08T01:04:29;40.85;;;19.60;;
23181;SDS011;11759;51.282;6.642;2024-03-08T01:06:56;39.08;;;17.95;;
23181;SDS011;11759;51.282;6.642;2024-03-08T01:09:23;42.53;;;18.42;;
23181;SDS011;11759;51.282;6.642;2024-03-08T01:11:50;39.40;;;17.75;;
23181;SDS011;11759;51.282;6.642;2024-03-08T01:14:17;43.08;;;19.27;;
23181;SDS011;11759;51.282;6.642;2024-03-08T01:16:43;44.03;;;19.98;;
23181;SDS011;11759;51.282;6.642;2024-03-08T01:19:10;43.63;;;18.88;;
23181;SDS011;11759;51.282;6.642;2024-03-08T01:21:37;42.92;;;19.08;;
23181;SDS011;11759;51.282;6.642;2024-03-08T01:24:04;42.97;;;18.85;;
23181;SDS011;11759;51.282;6.642;2024-03-08T01:26:31;45.45;;;19.35;;
23181;SDS011;11759;51.282;6.642;2024-03-08T01:28:58;42.25;;;20.73;;
23181;SDS011;11759;51.282;6.642;2024-03-08T01:31:25;43.08;;;19.13;;
23181;SDS011;11759;51.282;6.642;2024-03-08T01:33:51;45.55;;;20.80;;
23181;SDS011;11759;51.282;6.642;2024-03-08T01:36:19;47.53;;;19.23;;
23181;SDS011;11759;51.282;6.642;2024-03-08T01:38:46;40.65;;;19.30;;
23181;SDS011;11759;51.282;6.642;2024-03-08T01:41:13;52.50;;;20.38;;
23181;SDS011;11759;51.282;6.642;2024-03-08T01:43:40;48.97;;;20.88;;
23181;SDS011;11759;51.282;6.642;2024-03-08T01:46:07;44.80;;;19.00;;
23181;SDS011;11759;51.282;6.642;2024-03-08T01:48:35;45.25;;;20.10;;
23181;SDS011;11759;51.282;6.642;2024-03-08T01:51:03;44.80;;;21.27;;
23181;SDS011;11759;51.282;6.642;2024-03-08T01:53:30;51.50;;;21.05;;
23181;SDS011;11759;51.282;6.642;2024-03-08T01:55:57;45.00;;;19.80;;
23181;SDS011;11759;51.282;6.642;2024-03-08T01:58:25;50.95;;;21.58;;
23181;SDS011;11759;51.282;6.642;2024-03-08T02:00:54;51.30;;;20.50;;
23181;SDS011;11759;51.282;6.642;2024-03-08T02:03:23;47.75;;;21.67;;
23181;SDS011;11759;51.282;6.642;2024-03-08T02:05:49;47.78;;;21.08;;
23181;SDS011;11759;51.282;6.642;2024-03-08T02:08:18;46.78;;;22.38;;
23181;SDS011;11759;51.282;6.642;2024-03-08T02:10:45;48.22;;;21.05;;
23181;SDS011;11759;51.282;6.642;2024-03-08T02:13:12;53.35;;;22.35;;
23181;SDS011;11759;51.282;6.642;2024-03-08T02:18:22;44.00;;;20.55;;
23181;SDS011;11759;51.282;6.642;2024-03-08T02:20:56;49.75;;;22.00;;
23181;SDS011;11759;51.282;6.642;2024-03-08T02:23:24;48.75;;;20.17;;
23181;SDS011;11759;51.282;6.642;2024-03-08T02:25:52;43.92;;;18.45;;
23181;SDS011;11759;51.282;6.642;2024-03-08T02:28:19;47.72;;;20.70;;
23181;SDS011;11759;51.282;6.642;2024-03-08T02:30:47;45.25;;;20.23;;
23181;SDS011;11759;51.282;6.642;2024-03-08T02:33:17;48.60;;;21.23;;
23181;SDS011;11759;51.282;6.642;2024-03-08T02:35:44;54.95;;;22.33;;
23181;SDS011;11759;51.282;6.642;2024-03-08T02:38:15;47.13;;;21.43;;
23181;SDS011;11759;51.282;6.642;2024-03-08T02:40:43;54.60;;;22.27;;
23181;SDS011;11759;51.282;6.642;2024-03-08T02:43:10;54.53;;;21.35;;
23181;SDS011;11759;51.282;6.642;2024-03-08T02:45:37;50.78;;;20.80;;
23181;SDS011;11759;51.282;6.642;2024-03-08T02:48:05;50.55;;;21.58;;
23181;SDS011;11759;51.282;6.642;2024-03-08T02:50:34;47.42;;;19.83;;
23181;SDS011;11759;51.282;6.642;2024-03-08T02:53:03;47.65;;;21.63;;
23181;SDS011;11759;51.282;6.642;2024-03-08T02:55:30;47.25;;;20.70;;
23181;SDS011;11759;51.282;6.642;2024-03-08T02:57:57;53.08;;;21.98;;
23181;SDS011;11759;51.282;6.642;2024-03-08T03:00:23;49.88;;;21.50;;
23181;SDS011;11759;51.282;6.642;2024-03-08T03:02:50;51.63;;;21.55;;
23181;SDS011;11759;51.282;6.642;2024-03-08T03:05:21;54.77;;;22.13;;
23181;SDS011;11759;51.282;6.642;2024-03-08T03:07:48;53.45;;;21.35;;
23181;SDS011;11759;51.282;6.642;2024-03-08T03:10:18;50.97;;;21.08;;
23181;SDS011;11759;51.282;6.642;2024-03-08T03:12:45;51.55;;;20.98;;
23181;SDS011;11759;51.282;6.642;2024-03-08T03:15:12;52.97;;;20.98;;
23181;SDS011;11759;51.282;6.642;2024-03-08T03:17:40;52.55;;;20.35;;
23181;SDS011;11759;51.282;6.642;2024-03-08T03:20:07;48.67;;;21.25;;
23181;SDS011;11759;51.282;6.642;2024-03-08T03:22:40;48.97;;;20.73;;
23181;SDS011;11759;51.282;6.642;2024-03-08T03:25:08;49.38;;;20.77;;
23181;SDS011;11759;51.282;6.642;2024-03-08T03:27:36;49.47;;;19.80;;
23181;SDS011;11759;51.282;6.642;2024-03-08T03:30:03;51.70;;;20.33;;
23181;SDS011;11759;51.282;6.642;2024-03-08T03:32:48;50.58;;;21.52;;
23181;SDS011;11759;51.282;6.642;2024-03-08T03:35:19;51.80;;;21.63;;
23181;SDS011;11759;51.282;6.642;2024-03-08T03:37:47;49.72;;;20.98;;
23181;SDS011;11759;51.282;6.642;2024-03-08T03:40:34;56.13;;;20.90;;
23181;SDS011;11759;51.282;6.642;2024-03-08T03:43:05;49.13;;;21.13;;
23181;SDS011;11759;51.282;6.642;2024-03-08T03:45:32;48.67;;;21.00;;
23181;SDS011;11759;51.282;6.642;2024-03-08T03:48:06;49.58;;;20.15;;
23181;SDS011;11759;51.282;6.642;2024-03-08T03:50:37;50.08;;;21.35;;
23181;SDS011;11759;51.282;6.642;2024-03-08T03:53:05;53.35;;;20.50;;
23181;SDS011;11759;51.282;6.642;2024-03-08T03:55:36;51.90;;;21.88;;
23181;SDS011;11759;51.282;6.642;2024-03-08T03:58:05;49.25;;;21.98;;
23181;SDS011;11759;51.282;6.642;2024-03-08T04:00:31;46.53;;;19.70;;
23181;SDS011;11759;51.282;6.642;2024-03-08T04:02:59;55.00;;;21.33;;
23181;SDS011;11759;51.282;6.642;2024-03-08T04:05:27;55.30;;;21.23;;
23181;SDS011;11759;51.282;6.642;2024-03-08T04:07:54;60.03;;;23.67;;
23181;SDS011;11759;51.282;6.642;2024-03-08T04:10:21;48.40;;;21.08;;
23181;SDS011;11759;51.282;6.642;2024-03-08T04:12:47;50.05;;;20.77;;
23181;SDS011;11759;51.282;6.642;2024-03-08T04:15:14;60.15;;;21.73;;
23181;SDS011;11759;51.282;6.642;2024-03-08T04:17:41;54.88;;;21.77;;
23181;SDS011;11759;51.282;6.642;2024-03-08T04:20:09;51.55;;;22.45;;
23181;SDS011;11759;51.282;6.642;2024-03-08T04:22:37;56.03;;;21.75;;
23181;SDS011;11759;51.282;6.642;2024-03-08T04:25:04;49.00;;;22.17;;
23181;SDS011;11759;51.282;6.642;2024-03-08T04:27:35;57.08;;;22.77;;
23181;SDS011;11759;51.282;6.642;2024-03-08T04:30:02;55.13;;;21.93;;
23181;SDS011;11759;51.282;6.642;2024-03-08T04:32:29;55.90;;;21.35;;
23181;SDS011;11759;51.282;6.642;2024-03-08T04:34:58;61.30;;;23.48;;
23181;SDS011;11759;51.282;6.642;2024-03-08T04:37:27;54.20;;;21.25;;
23181;SDS011;11759;51.282;6.642;2024-03-08T04:39:56;59.03;;;22.75;;
23181;SDS011;11759;51.282;6.642;2024-03-08T04:42:23;62.20;;;24.83;;
23181;SDS011;11759;51.282;6.642;2024-03-08T04:44:50;55.60;;;22.10;;
23181;SDS011;11759;51.282;6.642;2024-03-08T04:47:17;51.88;;;22.33;;
23181;SDS011;11759;51.282;6.642;2024-03-08T04:49:44;58.72;;;22.70;;
23181;SDS011;11759;51.282;6.642;2024-03-08T04:52:10;58.70;;;24.20;;
23181;SDS011;11759;51.282;6.642;2024-03-08T04:54:38;60.50;;;24.88;;
23181;SDS011;11759;51.282;6.642;2024-03-08T04:57:05;60.95;;;23.52;;
23181;SDS011;11759;51.282;6.642;2024-03-08T04:59:35;60.28;;;23.63;;
23181;SDS011;11759;51.282;6.642;2024-03-08T05:02:02;63.15;;;22.98;;
23181;SDS011;11759;51.282;6.642;2024-03-08T05:04:30;64.40;;;22.52;;
23181;SDS011;11759;51.282;6.642;2024-03-08T05:06:56;54.65;;;23.20;;
23181;SDS011;11759;51.282;6.642;2024-03-08T05:09:23;62.53;;;23.92;;
23181;SDS011;11759;51.282;6.642;2024-03-08T05:11:50;55.08;;;22.00;;
23181;SDS011;11759;51.282;6.642;2024-03-08T05:14:17;66.03;;;24.02;;
23181;SDS011;11759;51.282;6.642;2024-03-08T05:16:46;57.90;;;22.92;;
23181;SDS011;11759;51.282;6.642;2024-03-08T05:19:16;63.38;;;23.50;;
23181;SDS011;11759;51.282;6.642;2024-03-08T05:21:44;62.72;;;24.42;;
23181;SDS011;11759;51.282;6.642;2024-03-08T05:24:11;62.92;;;22.25;;
23181;SDS011;11759;51.282;6.642;2024-03-08T05:26:38;54.40;;;21.35;;
23181;SDS011;11759;51.282;6.642;2024-03-08T05:29:05;59.13;;;23.73;;
23181;SDS011;11759;51.282;6.642;2024-03-08T05:31:38;66.88;;;24.90;;
23181;SDS011;11759;51.282;6.642;2024-03-08T05:34:09;59.00;;;21.10;;
23181;SDS011;11759;51.282;6.642;2024-03-08T05:36:36;70.43;;;25.17;;
23181;SDS011;11759;51.282;6.642;2024-03-08T05:39:03;61.72;;;22.73;;
23181;SDS011;11759;51.282;6.642;2024-03-08T05:41:32;63.22;;;22.30;;
23181;SDS011;11759;51.282;6.642;2024-03-08T05:43:59;63.33;;;26.15;;
23181;SDS011;11759;51.282;6.642;2024-03-08T05:46:26;63.20;;;23.48;;
23181;SDS011;11759;51.282;6.642;2024-03-08T05:48:52;62.35;;;25.05;;
23181;SDS011;11759;51.282;6.642;2024-03-08T05:51:23;61.15;;;24.63;;
23181;SDS011;11759;51.282;6.642;2024-03-08T05:53:50;69.93;;;23.90;;
23181;SDS011;11759;51.282;6.642;2024-03-08T05:56:16;65.00;;;24.38;;
23181;SDS011;11759;51.282;6.642;2024-03-08T05:58:43;66.88;;;25.08;;
23181;SDS011;11759;51.282;6.642;2024-03-08T06:01:10;65.47;;;24.60;;
23181;SDS011;11759;51.282;6.642;2024-03-08T06:03:38;63.80;;;23.70;;
23181;SDS011;11759;51.282;6.642;2024-03-08T06:06:12;55.90;;;23.48;;
23181;SDS011;11759;51.282;6.642;2024-03-08T06:08:39;67.15;;;25.27;;
23181;SDS011;11759;51.282;6.642;2024-03-08T06:11:05;62.05;;;23.90;;
23181;SDS011;11759;51.282;6.642;2024-03-08T06:13:32;55.95;;;23.90;;
23181;SDS011;11759;51.282;6.642;2024-03-08T06:16:00;67.93;;;24.58;;
23181;SDS011;11759;51.282;6.642;2024-03-08T06:18:30;71.68;;;24.70;;
23181;SDS011;11759;51.282;6.642;2024-03-08T06:20:57;57.25;;;23.40;;
23181;SDS011;11759;51.282;6.642;2024-03-08T06:23:24;64.65;;;24.73;;
23181;SDS011;11759;51.282;6.642;2024-03-08T06:25:50;63.67;;;25.70;;
23181;SDS011;11759;51.282;6.642;2024-03-08T06:28:17;66.32;;;24.27;;
23181;SDS011;11759;51.282;6.642;2024-03-08T06:30:44;66.82;;;24.85;;
23181;SDS011;11759;51.282;6.642;2024-03-08T06:33:10;65.28;;;25.50;;
23181;SDS011;11759;51.282;6.642;2024-03-08T06:35:37;60.83;;;25.27;;
23181;SDS011;11759;51.282;6.642;2024-03-08T06:38:04;68.68;;;25.10;;
23181;SDS011;11759;51.282;6.642;2024-03-08T06:40:31;66.80;;;25.60;;
23181;SDS011;11759;51.282;6.642;2024-03-08T06:42:58;59.55;;;25.10;;
23181;SDS011;11759;51.282;6.642;2024-03-08T06:45:25;62.65;;;25.80;;
23181;SDS011;11759;51.282;6.642;2024-03-08T06:47:52;68.85;;;25.08;;
23181;SDS011;11759;51.282;6.642;2024-03-08T06:50:18;69.75;;;27.00;;
23181;SDS011;11759;51.282;6.642;2024-03-08T06:52:45;62.45;;;24.25;;
23181;SDS011;11759;51.282;6.642;2024-03-08T06:55:17;63.72;;;25.83;;
23181;SDS011;11759;51.282;6.642;2024-03-08T06:57:43;63.10;;;24.77;;
23181;SDS011;11759;51.282;6.642;2024-03-08T07:00:10;63.88;;;25.08;;
23181;SDS011;11759;51.282;6.642;2024-03-08T07:02:40;63.33;;;24.58;;
23181;SDS011;11759;51.282;6.642;2024-03-08T07:05:08;64.03;;;25.35;;
23181;SDS011;11759;51.282;6.642;2024-03-08T07:07:37;63.33;;;24.88;;
23181;SDS011;11759;51.282;6.642;2024-03-08T07:10:04;65.45;;;25.52;;
23181;SDS011;11759;51.282;6.642;2024-03-08T07:12:30;62.65;;;24.30;;
23181;SDS011;11759;51.282;6.642;2024-03-08T07:14:57;56.65;;;25.13;;
23181;SDS011;11759;51.282;6.642;2024-03-08T07:17:24;56.90;;;26.40;;
23181;SDS011;11759;51.282;6.642;2024-03-08T07:19:52;54.80;;;25.30;;
23181;SDS011;11759;51.282;6.642;2024-03-08T07:22:20;51.45;;;23.67;;
23181;SDS011;11759;51.282;6.642;2024-03-08T07:24:48;50.53;;;22.35;;
23181;SDS011;11759;51.282;6.642;2024-03-08T07:27:36;51.00;;;24.00;;
23181;SDS011;11759;51.282;6.642;2024-03-08T07:30:03;55.30;;;24.83;;
23181;SDS011;11759;51.282;6.642;2024-03-08T07:32:33;51.45;;;22.98;;
23181;SDS011;11759;51.282;6.642;2024-03-08T07:35:01;48.28;;;22.45;;
23181;SDS011;11759;51.282;6.642;2024-03-08T07:37:30;46.85;;;23.73;;
23181;SDS011;11759;51.282;6.642;2024-03-08T07:39:57;45.30;;;21.48;;
23181;SDS011;11759;51.282;6.642;2024-03-08T07:42:24;56.40;;;23.13;;
23181;SDS011;11759;51.282;6.642;2024-03-08T07:44:51;43.45;;;21.67;;
23181;SDS011;11759;51.282;6.642;2024-03-08T07:47:19;46.95;;;22.40;;
23181;SDS011;11759;51.282;6.642;2024-03-08T07:52:16;44.50;;;21.73;;
23181;SDS011;11759;51.282;6.642;2024-03-08T07:54:44;43.00;;;20.98;;
23181;SDS011;11759;51.282;6.642;2024-03-08T07:57:11;48.88;;;21.77;;
23181;SDS011;11759;51.282;6.642;2024-03-08T07:59:37;42.65;;;22.02;;
23181;SDS011;11759;51.282;6.642;2024-03-08T08:02:04;42.40;;;21.42;;
23181;SDS011;11759;51.282;6.642;2024-03-08T08:04:31;38.15;;;21.08;;
23181;SDS011;11759;51.282;6.642;2024-03-08T08:06:57;42.25;;;20.80;;
23181;SDS011;11759;51.282;6.642;2024-03-08T08:09:24;49.88;;;22.40;;
23181;SDS011;11759;51.282;6.642;2024-03-08T08:12:01;43.78;;;21.38;;
23181;SDS011;11759;51.282;6.642;2024-03-08T08:14:30;40.50;;;20.73;;
23181;SDS011;11759;51.282;6.642;2024-03-08T08:16:57;37.17;;;20.33;;
23181;SDS011;11759;51.282;6.642;2024-03-08T08:19:26;33.78;;;18.92;;
23181;SDS011;11759;51.282;6.642;2024-03-08T08:21:54;36.05;;;20.02;;
23181;SDS011;11759;51.282;6.642;2024-03-08T08:24:20;38.42;;;18.75;;
23181;SDS011;11759;51.282;6.642;2024-03-08T08:26:48;40.95;;;20.38;;
23181;SDS011;11759;51.282;6.642;2024-03-08T08:29:15;36.60;;;19.30;;
23181;SDS011;11759;51.282;6.642;2024-03-08T08:31:42;33.45;;;18.67;;
23181;SDS011;11759;51.282;6.642;2024-03-08T08:34:09;38.47;;;19.02;;
23181;SDS011;11759;51.282;6.642;2024-03-08T08:36:36;39.05;;;18.90;;
23181;SDS011;11759;51.282;6.642;2024-03-08T08:39:03;32.47;;;18.50;;
23181;SDS011;11759;51.282;6.642;2024-03-08T08:41:30;33.95;;;17.23;;
23181;SDS011;11759;51.282;6.642;2024-03-08T08:43:56;35.25;;;17.75;;
23181;SDS011;11759;51.282;6.642;2024-03-08T08:46:39;35.25;;;17.98;;
23181;SDS011;11759;51.282;6.642;2024-03-08T08:49:07;31.63;;;17.40;;
23181;SDS011;11759;51.282;6.642;2024-03-08T08:51:37;34.65;;;18.58;;
23181;SDS011;11759;51.282;6.642;2024-03-08T08:54:03;31.33;;;16.85;;
23181;SDS011;11759;51.282;6.642;2024-03-08T08:56:31;33.40;;;17.02;;
23181;SDS011;11759;51.282;6.642;2024-03-08T08:58:58;28.27;;;15.88;;
23181;SDS011;11759;51.282;6.642;2024-03-08T09:01:24;31.42;;;16.02;;
23181;SDS011;11759;51.282;6.642;2024-03-08T09:03:51;36.42;;;16.95;;
23181;SDS011;11759;51.282;6.642;2024-03-08T09:06:18;35.10;;;16.80;;
23181;SDS011;11759;51.282;6.642;2024-03-08T09:08:45;34.03;;;16.98;;
23181;SDS011;11759;51.282;6.642;2024-03-08T09:11:12;30.48;;;16.77;;
23181;SDS011;11759;51.282;6.642;2024-03-08T09:13:38;29.23;;;15.35;;
23181;SDS011;11759;51.282;6.642;2024-03-08T09:16:05;32.00;;;15.30;;
23181;SDS011;11759;51.282;6.642;2024-03-08T09:18:33;27.48;;;14.40;;
23181;SDS011;11759;51.282;6.642;2024-03-08T09:20:59;30.10;;;14.25;;
23181;SDS011;11759;51.282;6.642;2024-03-08T09:23:26;27.08;;;13.60;;
23181;SDS011;11759;51.282;6.642;2024-03-08T09:25:56;27.48;;;13.40;;
23181;SDS011;11759;51.282;6.642;2024-03-08T09:28:23;25.52;;;13.63;;
23181;SDS011;11759;51.282;6.642;2024-03-08T09:30:51;25.20;;;13.40;;
23181;SDS011;11759;51.282;6.642;2024-03-08T09:33:25;28.08;;;13.80;;
23181;SDS011;11759;51.282;6.642;2024-03-08T09:35:53;25.05;;;12.93;;
23181;SDS011;11759;51.282;6.642;2024-03-08T09:38:20;25.45;;;12.77;;
23181;SDS011;11759;51.282;6.642;2024-03-08T09:40:47;30.30;;;14.23;;
23181;SDS011;11759;51.282;6.642;2024-03-08T09:43:14;24.02;;;13.75;;
23181;SDS011;11759;51.282;6.642;2024-03-08T09:45:41;24.92;;;13.35;;
23181;SDS011;11759;51.282;6.642;2024-03-08T09:48:11;25.25;;;14.07;;
23181;SDS011;11759;51.282;6.642;2024-03-08T09:50:39;24.50;;;13.15;;
23181;SDS011;11759;51.282;6.642;2024-03-08T09:53:07;28.08;;;14.02;;
23181;SDS011;11759;51.282;6.642;2024-03-08T09:55:38;24.83;;;13.32;;
23181;SDS011;11759;51.282;6.642;2024-03-08T09:58:09;26.50;;;13.43;;
23181;SDS011;11759;51.282;6.642;2024-03-08T10:00:56;25.15;;;12.85;;
23181;SDS011;11759;51.282;6.642;2024-03-08T10:03:23;28.33;;;14.07;;
23181;SDS011;11759;51.282;6.642;2024-03-08T10:05:53;25.55;;;13.52;;
23181;SDS011;11759;51.282;6.642;2024-03-08T10:08:29;27.58;;;13.38;;
23181;SDS011;11759;51.282;6.642;2024-03-08T10:10:56;24.55;;;13.38;;
23181;SDS011;11759;51.282;6.642;2024-03-08T10:13:26;24.95;;;13.63;;
23181;SDS011;11759;51.282;6.642;2024-03-08T10:15:54;23.98;;;12.90;;
23181;SDS011;11759;51.282;6.642;2024-03-08T10:18:21;24.95;;;12.60;;
23181;SDS011;11759;51.282;6.642;2024-03-08T10:21:08;25.08;;;12.90;;
23181;SDS011;11759;51.282;6.642;2024-03-08T10:23:37;25.65;;;13.23;;
23181;SDS011;11759;51.282;6.642;2024-03-08T10:26:10;23.67;;;13.75;;
23181;SDS011;11759;51.282;6.642;2024-03-08T10:28:42;24.67;;;13.93;;
23181;SDS011;11759;51.282;6.642;2024-03-08T10:31:09;25.70;;;13.27;;
23181;SDS011;11759;51.282;6.642;2024-03-08T10:33:36;28.95;;;13.38;;
23181;SDS011;11759;51.282;6.642;2024-03-08T10:36:06;26.00;;;12.80;;
23181;SDS011;11759;51.282;6.642;2024-03-08T10:38:35;26.83;;;13.82;;
23181;SDS011;11759;51.282;6.642;2024-03-08T10:41:03;21.45;;;12.25;;
23181;SDS011;11759;51.282;6.642;2024-03-08T10:43:33;24.38;;;13.23;;
23181;SDS011;11759;51.282;6.642;2024-03-08T10:46:15;26.15;;;13.07;;
23181;SDS011;11759;51.282;6.642;2024-03-08T10:48:57;20.55;;;11.63;;
23181;SDS011;11759;51.282;6.642;2024-03-08T10:51:29;23.00;;;12.50;;
23181;SDS011;11759;51.282;6.642;2024-03-08T10:53:57;20.23;;;11.55;;
23181;SDS011;11759;51.282;6.642;2024-03-08T10:56:24;22.70;;;11.80;;
23181;SDS011;11759;51.282;6.642;2024-03-08T10:58:54;26.15;;;12.00;;
23181;SDS011;11759;51.282;6.642;2024-03-08T11:01:21;19.85;;;11.23;;
23181;SDS011;11759;51.282;6.642;2024-03-08T11:03:48;20.20;;;11.15;;
23181;SDS011;11759;51.282;6.642;2024-03-08T11:06:29;21.85;;;11.52;;
23181;SDS011;11759;51.282;6.642;2024-03-08T11:08:58;20.98;;;10.60;;
23181;SDS011;11759;51.282;6.642;2024-03-08T11:11:29;21.45;;;11.00;;
23181;SDS011;11759;51.282;6.642;2024-03-08T11:14:02;22.35;;;10.65;;
23181;SDS011;11759;51.282;6.642;2024-03-08T11:19:22;21.48;;;12.07;;
23181;SDS011;11759;51.282;6.642;2024-03-08T11:21:57;18.30;;;10.00;;
23181;SDS011;11759;51.282;6.642;2024-03-08T11:24:24;21.00;;;11.23;;
23181;SDS011;11759;51.282;6.642;2024-03-08T11:26:56;17.83;;;9.98;;
23181;SDS011;11759;51.282;6.642;2024-03-08T11:32:15;16.38;;;9.65;;
23181;SDS011;11759;51.282;6.642;2024-03-08T11:34:45;18.70;;;10.48;;
23181;SDS011;11759;51.282;6.642;2024-03-08T11:37:14;18.48;;;10.00;;
23181;SDS011;11759;51.282;6.642;2024-03-08T11:39:51;18.45;;;10.18;;
23181;SDS011;11759;51.282;6.642;2024-03-08T11:42:19;17.08;;;9.90;;
23181;SDS011;11759;51.282;6.642;2024-03-08T11:44:46;16.70;;;9.40;;
23181;SDS011;11759;51.282;6.642;2024-03-08T11:47:14;17.42;;;9.60;;
23181;SDS011;11759;51.282;6.642;2024-03-08T11:49:42;16.40;;;10.02;;
23181;SDS011;11759;51.282;6.642;2024-03-08T11:52:11;17.60;;;10.00;;
23181;SDS011;11759;51.282;6.642;2024-03-08T11:54:41;17.10;;;9.73;;
23181;SDS011;11759;51.282;6.642;2024-03-08T11:57:09;15.73;;;9.27;;
23181;SDS011;11759;51.282;6.642;2024-03-08T11:59:36;18.45;;;10.55;;
23181;SDS011;11759;51.282;6.642;2024-03-08T12:02:04;17.58;;;8.98;;
23181;SDS011;11759;51.282;6.642;2024-03-08T12:04:31;16.27;;;9.88;;
23181;SDS011;11759;51.282;6.642;2024-03-08T12:06:59;16.05;;;9.40;;
23181;SDS011;11759;51.282;6.642;2024-03-08T12:09:37;17.45;;;9.38;;
23181;SDS011;11759;51.282;6.642;2024-03-08T12:12:05;16.40;;;9.43;;
23181;SDS011;11759;51.282;6.642;2024-03-08T12:14:33;16.52;;;9.73;;
23181;SDS011;11759;51.282;6.642;2024-03-08T12:17:00;15.13;;;9.27;;
23181;SDS011;11759;51.282;6.642;2024-03-08T12:19:28;20.45;;;9.95;;
23181;SDS011;11759;51.282;6.642;2024-03-08T12:21:55;18.38;;;10.05;;
23181;SDS011;11759;51.282;6.642;2024-03-08T12:24:22;18.38;;;9.65;;
23181;SDS011;11759;51.282;6.642;2024-03-08T12:26:49;21.50;;;10.35;;
23181;SDS011;11759;51.282;6.642;2024-03-08T12:29:25;22.55;;;9.80;;
23181;SDS011;11759;51.282;6.642;2024-03-08T12:32:03;21.50;;;11.02;;
23181;SDS011;11759;51.282;6.642;2024-03-08T12:34:31;18.13;;;10.00;;
23181;SDS011;11759;51.282;6.642;2024-03-08T12:36:59;17.10;;;9.30;;
23181;SDS011;11759;51.282;6.642;2024-03-08T12:39:26;15.65;;;9.38;;
23181;SDS011;11759;51.282;6.642;2024-03-08T12:41:54;16.75;;;9.80;;
23181;SDS011;11759;51.282;6.642;2024-03-08T12:44:20;16.45;;;9.52;;
23181;SDS011;11759;51.282;6.642;2024-03-08T12:46:51;16.23;;;9.23;;
23181;SDS011;11759;51.282;6.642;2024-03-08T12:49:19;16.42;;;9.25;;
23181;SDS011;11759;51.282;6.642;2024-03-08T12:51:49;18.70;;;10.00;;
23181;SDS011;11759;51.282;6.642;2024-03-08T12:54:15;17.35;;;9.43;;
23181;SDS011;11759;51.282;6.642;2024-03-08T12:56:42;19.48;;;9.35;;
23181;SDS011;11759;51.282;6.642;2024-03-08T12:59:09;17.38;;;9.95;;
23181;SDS011;11759;51.282;6.642;2024-03-08T13:01:36;15.05;;;8.90;;
23181;SDS011;11759;51.282;6.642;2024-03-08T13:04:06;18.73;;;9.88;;
23181;SDS011;11759;51.282;6.642;2024-03-08T13:06:34;16.08;;;9.70;;
23181;SDS011;11759;51.282;6.642;2024-03-08T13:09:01;15.43;;;9.32;;
23181;SDS011;11759;51.282;6.642;2024-03-08T13:11:32;16.73;;;9.80;;
23181;SDS011;11759;51.282;6.642;2024-03-08T13:14:03;16.70;;;8.90;;
23181;SDS011;11759;51.282;6.642;2024-03-08T13:16:31;13.57;;;8.20;;
23181;SDS011;11759;51.282;6.642;2024-03-08T13:18:59;19.52;;;9.18;;
23181;SDS011;11759;51.282;6.642;2024-03-08T13:21:26;15.27;;;9.18;;
23181;SDS011;11759;51.282;6.642;2024-03-08T13:23:52;16.27;;;10.10;;
23181;SDS011;11759;51.282;6.642;2024-03-08T13:26:19;16.65;;;9.48;;
23181;SDS011;11759;51.282;6.642;2024-03-08T13:28:46;16.77;;;9.90;;
23181;SDS011;11759;51.282;6.642;2024-03-08T13:31:20;17.15;;;9.13;;
23181;SDS011;11759;51.282;6.642;2024-03-08T13:33:47;15.13;;;8.93;;
23181;SDS011;11759;51.282;6.642;2024-03-08T13:36:14;16.17;;;9.27;;
23181;SDS011;11759;51.282;6.642;2024-03-08T13:38:42;18.00;;;9.70;;
23181;SDS011;11759;51.282;6.642;2024-03-08T13:41:12;18.02;;;9.63;;
23181;SDS011;11759;51.282;6.642;2024-03-08T13:43:41;18.33;;;9.35;;
23181;SDS011;11759;51.282;6.642;2024-03-08T13:46:08;16.95;;;9.30;;
23181;SDS011;11759;51.282;6.642;2024-03-08T13:48:36;19.10;;;9.77;;
23181;SDS011;11759;51.282;6.642;2024-03-08T13:51:07;19.63;;;9.82;;
23181;SDS011;11759;51.282;6.642;2024-03-08T13:53:39;18.23;;;9.50;;
23181;SDS011;11759;51.282;6.642;2024-03-08T13:56:06;17.67;;;10.13;;
23181;SDS011;11759;51.282;6.642;2024-03-08T13:58:37;19.80;;;10.37;;
23181;SDS011;11759;51.282;6.642;2024-03-08T14:01:03;19.02;;;9.93;;
23181;SDS011;11759;51.282;6.642;2024-03-08T14:03:38;20.75;;;9.98;;
23181;SDS011;11759;51.282;6.642;2024-03-08T14:06:08;19.20;;;10.20;;
23181;SDS011;11759;51.282;6.642;2024-03-08T14:08:35;18.00;;;9.75;;
23181;SDS011;11759;51.282;6.642;2024-03-08T14:11:04;17.55;;;9.40;;
23181;SDS011;11759;51.282;6.642;2024-03-08T14:13:43;17.13;;;9.52;;
23181;SDS011;11759;51.282;6.642;2024-03-08T14:16:13;16.38;;;9.27;;
23181;SDS011;11759;51.282;6.642;2024-03-08T14:18:41;20.33;;;9.32;;
23181;SDS011;11759;51.282;6.642;2024-03-08T14:21:08;20.63;;;10.20;;
23181;SDS011;11759;51.282;6.642;2024-03-08T14:23:35;19.73;;;10.48;;
23181;SDS011;11759;51.282;6.642;2024-03-08T14:26:03;19.08;;;9.27;;
23181;SDS011;11759;51.282;6.642;2024-03-08T14:28:31;21.98;;;9.88;;
23181;SDS011;11759;51.282;6.642;2024-03-08T14:30:58;16.88;;;9.38;;
23181;SDS011;11759;51.282;6.642;2024-03-08T14:33:32;16.70;;;9.15;;
23181;SDS011;11759;51.282;6.642;2024-03-08T14:35:59;23.60;;;10.88;;
23181;SDS011;11759;51.282;6.642;2024-03-08T14:38:27;21.65;;;8.93;;
23181;SDS011;11759;51.282;6.642;2024-03-08T14:40:54;18.60;;;9.93;;